Time;durP1;ratioP1;P1;durP2;ratioP2;P2;SDS_P1;SDS_P2;PMS_P1;PMS_P2;Temp;Humidity;BMP_temperature;BMP_pressure;BME280_temperature;BME280_humidity;BME280_pressure;Samples;Min_cycle;Max_cycle;Signal;HPM_P1;HPM_P2
2021/06/03 00:01:43;;;;;;;5.97;2.25;;;20.60;69.60;;;;;;5092443;28;20520;-66
2021/06/03 00:04:09;;;;;;;4.85;2.40;;;20.60;69.40;;;;;;5084277;28;20120;-65
2021/06/03 00:06:35;;;;;;;6.75;2.70;;;20.60;69.50;;;;;;5072924;28;20070;-66
2021/06/03 00:09:00;;;;;;;5.35;2.45;;;20.60;69.70;;;;;;5088200;28;20020;-66
2021/06/03 00:11:26;;;;;;;4.38;2.35;;;20.50;69.30;;;;;;5092545;28;20059;-65
2021/06/03 00:13:52;;;;;;;4.65;2.10;;;20.50;69.80;;;;;;5085374;28;20691;-66
2021/06/03 00:16:17;;;;;;;6.32;2.50;;;20.50;69.60;;;;;;5091822;28;20024;-65
2021/06/03 00:18:44;;;;;;;6.15;2.78;;;20.50;69.60;;;;;;5087081;28;20512;-66
2021/06/03 00:21:10;;;;;;;5.35;2.85;;;20.50;69.80;;;;;;5073801;28;20115;-65
2021/06/03 00:23:36;;;;;;;5.32;2.42;;;20.50;70.10;;;;;;5072477;28;20085;-66
2021/06/03 00:26:02;;;;;;;5.72;2.55;;;20.50;69.70;;;;;;5076129;28;20025;-66
2021/06/03 00:28:28;;;;;;;5.50;2.30;;;20.50;69.60;;;;;;5092117;28;20108;-65
2021/06/03 00:30:53;;;;;;;4.82;2.25;;;20.50;69.50;;;;;;5084525;28;20103;-66
2021/06/03 00:33:19;;;;;;;4.22;2.10;;;20.50;69.60;;;;;;5073634;28;20029;-66
2021/06/03 00:35:44;;;;;;;4.97;2.30;;;20.50;69.70;;;;;;5076493;28;20401;-66
2021/06/03 00:38:10;;;;;;;5.70;2.17;;;20.50;69.90;;;;;;5082585;28;20535;-66
2021/06/03 00:40:37;;;;;;;5.40;2.30;;;20.50;69.80;;;;;;5093164;28;20050;-66
2021/06/03 00:43:03;;;;;;;4.53;2.28;;;20.50;69.70;;;;;;5087859;28;20023;-66
2021/06/03 00:45:32;;;;;;;5.32;2.30;;;20.50;70.20;;;;;;5071402;28;20021;-66
2021/06/03 00:47:58;;;;;;;4.28;2.28;;;20.50;69.90;;;;;;5082458;28;20067;-66
2021/06/03 00:50:32;;;;;;;4.32;2.53;;;20.40;69.70;;;;;;5087148;28;20075;-66
2021/06/03 00:53:00;;;;;;;3.75;2.10;;;20.50;69.60;;;;;;5073382;28;20071;-66
2021/06/03 00:55:25;;;;;;;4.55;2.40;;;20.50;69.60;;;;;;5087035;28;20028;-65
2021/06/03 00:57:51;;;;;;;5.78;2.33;;;20.40;70.00;;;;;;5085055;28;20031;-66
2021/06/03 01:00:17;;;;;;;5.97;2.22;;;20.40;69.90;;;;;;5084822;28;20029;-66
2021/06/03 01:02:45;;;;;;;3.92;2.17;;;20.40;70.40;;;;;;5073185;28;20033;-66
2021/06/03 01:05:26;;;;;;;5.43;2.20;;;20.40;70.20;;;;;;5077832;28;20037;-66
2021/06/03 01:07:55;;;;;;;5.30;2.00;;;20.40;70.40;;;;;;5076133;28;20020;-66
2021/06/03 01:10:36;;;;;;;5.47;2.47;;;20.40;70.40;;;;;;5076966;28;20024;-66
2021/06/03 01:13:13;;;;;;;6.22;2.30;;;20.40;70.70;;;;;;5078913;28;20122;-66
2021/06/03 01:15:41;;;;;;;5.10;2.45;;;20.40;70.50;;;;;;5088752;28;20116;-67
2021/06/03 01:18:08;;;;;;;5.68;2.33;;;20.40;70.40;;;;;;5081756;28;20070;-66
2021/06/03 01:20:33;;;;;;;9.00;2.28;;;20.40;70.10;;;;;;5072480;28;20029;-66
2021/06/03 01:23:06;;;;;;;3.97;2.17;;;20.40;70.70;;;;;;5071534;28;20091;-66
2021/06/03 01:25:32;;;;;;;4.18;2.22;;;20.40;70.40;;;;;;5072440;28;20025;-66
2021/06/03 01:28:01;;;;;;;4.50;2.30;;;20.30;70.60;;;;;;5075558;28;20038;-67
2021/06/03 01:30:31;;;;;;;6.30;2.75;;;20.40;70.70;;;;;;5073625;28;20052;-66
2021/06/03 01:33:07;;;;;;;5.10;2.60;;;20.30;70.70;;;;;;5072476;28;20036;-66
2021/06/03 01:35:39;;;;;;;4.80;2.05;;;20.30;70.80;;;;;;5072255;28;20024;-67
2021/06/03 01:38:07;;;;;;;4.03;2.10;;;20.30;71.00;;;;;;5081200;28;20111;-67
2021/06/03 01:40:36;;;;;;;4.93;2.67;;;20.30;70.90;;;;;;5085088;28;20564;-66
2021/06/03 01:43:05;;;;;;;5.00;2.33;;;20.30;70.90;;;;;;5092393;28;20024;-66
2021/06/03 01:45:31;;;;;;;4.63;2.47;;;20.30;71.00;;;;;;5089055;28;20020;-66
2021/06/03 01:47:56;;;;;;;4.03;2.28;;;20.30;71.40;;;;;;5086664;28;20028;-66
2021/06/03 01:50:24;;;;;;;4.40;2.17;;;20.30;71.20;;;;;;5087438;28;20021;-66
2021/06/03 01:52:50;;;;;;;4.15;2.30;;;20.30;71.20;;;;;;5072199;28;20029;-66
2021/06/03 01:55:17;;;;;;;4.55;2.20;;;20.30;71.40;;;;;;5084551;28;20050;-66
2021/06/03 01:57:45;;;;;;;5.65;2.28;;;20.30;71.50;;;;;;5078643;28;20036;-66
2021/06/03 02:00:12;;;;;;;5.63;2.35;;;20.30;71.30;;;;;;5081915;28;20036;-66
2021/06/03 02:02:38;;;;;;;6.50;2.55;;;20.20;71.30;;;;;;5092174;28;20031;-67
2021/06/03 02:05:05;;;;;;;4.68;2.20;;;20.20;71.40;;;;;;5091704;28;20016;-66
2021/06/03 02:07:31;;;;;;;4.72;2.20;;;20.20;71.60;;;;;;5080864;28;20055;-66
2021/06/03 02:09:57;;;;;;;5.65;2.60;;;20.20;71.50;;;;;;5082696;28;20044;-66
2021/06/03 02:12:23;;;;;;;4.55;2.30;;;20.20;71.50;;;;;;5092028;28;20024;-66
2021/06/03 02:14:51;;;;;;;3.95;2.08;;;20.20;71.70;;;;;;5071860;28;20106;-67
2021/06/03 02:17:26;;;;;;;4.82;2.40;;;20.20;71.80;;;;;;5085934;28;20062;-67
2021/06/03 02:20:09;;;;;;;6.90;2.47;;;20.20;71.50;;;;;;5079655;28;20028;-66
2021/06/03 02:22:37;;;;;;;5.00;2.38;;;20.20;71.90;;;;;;5092055;28;20424;-66
2021/06/03 02:25:04;;;;;;;5.00;2.28;;;20.20;71.90;;;;;;5090413;28;20496;-66
2021/06/03 02:27:30;;;;;;;5.28;2.38;;;20.20;72.30;;;;;;5082197;28;20024;-66
2021/06/03 02:29:56;;;;;;;5.15;2.40;;;20.20;72.20;;;;;;5080588;28;20050;-66
2021/06/03 02:32:22;;;;;;;5.07;2.25;;;20.20;72.30;;;;;;5073871;28;20393;-66
2021/06/03 02:34:48;;;;;;;4.20;2.00;;;20.20;72.30;;;;;;5071336;28;20020;-66
2021/06/03 02:37:16;;;;;;;5.03;2.45;;;20.20;72.10;;;;;;5073515;28;20028;-66
2021/06/03 02:39:45;;;;;;;4.28;2.10;;;20.20;72.30;;;;;;5091637;28;20024;-66
2021/06/03 02:42:11;;;;;;;3.90;2.30;;;20.10;72.10;;;;;;5091409;28;20031;-66
2021/06/03 02:44:38;;;;;;;4.15;2.30;;;20.20;72.10;;;;;;5080711;28;20052;-66
2021/06/03 02:47:05;;;;;;;4.30;2.40;;;20.10;72.30;;;;;;5071627;28;20477;-66
2021/06/03 02:49:31;;;;;;;4.35;2.17;;;20.10;72.10;;;;;;5091883;28;20099;-66
2021/06/03 02:52:01;;;;;;;5.45;2.22;;;20.10;71.90;;;;;;5084463;28;20108;-66
2021/06/03 02:54:28;;;;;;;4.10;2.30;;;20.20;72.10;;;;;;5071182;28;20363;-67
2021/06/03 02:56:53;;;;;;;4.65;2.40;;;20.10;72.00;;;;;;5082853;28;20090;-65
2021/06/03 02:59:19;;;;;;;4.47;2.20;;;20.10;72.00;;;;;;5089656;28;20432;-65
2021/06/03 03:01:45;;;;;;;5.70;2.35;;;20.10;71.80;;;;;;5071251;28;20060;-66
2021/06/03 03:04:10;;;;;;;5.00;2.22;;;20.10;72.10;;;;;;5071079;28;20021;-66
2021/06/03 03:06:36;;;;;;;6.10;2.28;;;20.10;72.10;;;;;;5077300;28;20028;-66
2021/06/03 03:09:03;;;;;;;4.30;2.20;;;20.10;72.50;;;;;;5075812;28;20025;-66
2021/06/03 03:11:28;;;;;;;5.00;2.53;;;20.10;72.50;;;;;;5088994;28;20497;-65
2021/06/03 03:13:54;;;;;;;5.15;2.25;;;20.10;72.20;;;;;;5093430;28;20057;-66
2021/06/03 03:16:20;;;;;;;4.05;2.20;;;20.10;72.30;;;;;;5088968;28;20101;-67
2021/06/03 03:18:45;;;;;;;3.67;2.03;;;20.10;72.40;;;;;;5075006;28;20175;-66
2021/06/03 03:21:11;;;;;;;6.20;2.33;;;20.10;72.50;;;;;;5074985;28;20029;-66
2021/06/03 03:23:36;;;;;;;4.60;2.25;;;20.10;72.10;;;;;;5084242;28;20024;-65
2021/06/03 03:26:02;;;;;;;4.93;2.50;;;20.10;72.00;;;;;;5095262;28;20023;-66
2021/06/03 03:28:28;;;;;;;4.53;2.55;;;20.10;72.20;;;;;;5095060;28;20024;-66
2021/06/03 03:30:54;;;;;;;7.97;2.33;;;20.10;72.10;;;;;;5084206;28;20035;-67
2021/06/03 03:33:20;;;;;;;5.10;2.45;;;20.10;71.90;;;;;;5084350;28;20045;-65
2021/06/03 03:35:46;;;;;;;5.03;2.58;;;20.10;71.90;;;;;;5089618;28;20051;-66
2021/06/03 03:38:13;;;;;;;4.20;2.40;;;20.10;71.60;;;;;;5096518;28;20024;-65
2021/06/03 03:40:39;;;;;;;4.72;2.40;;;20.10;72.00;;;;;;5094491;28;20039;-68
2021/06/03 03:43:05;;;;;;;4.45;2.33;;;20.10;71.70;;;;;;5081160;28;20032;-66
2021/06/03 03:45:32;;;;;;;5.22;2.25;;;20.10;71.90;;;;;;5094528;28;20098;-66
2021/06/03 03:48:00;;;;;;;4.50;2.38;;;20.10;71.70;;;;;;5094902;28;20036;-66
2021/06/03 03:50:26;;;;;;;5.18;2.88;;;20.10;71.10;;;;;;5088312;28;20107;-66
2021/06/03 03:52:52;;;;;;;4.90;2.40;;;20.10;72.00;;;;;;5077799;28;20024;-66
2021/06/03 03:55:17;;;;;;;4.93;2.10;;;20.10;72.10;;;;;;5093324;28;20036;-66
2021/06/03 03:57:45;;;;;;;4.70;2.50;;;20.10;72.40;;;;;;5094144;28;20509;-66
2021/06/03 04:00:14;;;;;;;3.92;2.08;;;20.10;72.30;;;;;;5091322;28;20032;-66
2021/06/03 04:02:40;;;;;;;5.03;2.17;;;20.10;72.80;;;;;;5077409;28;20810;-66
2021/06/03 04:05:06;;;;;;;4.25;2.05;;;20.10;72.30;;;;;;5092313;28;20074;-66
2021/06/03 04:07:32;;;;;;;4.78;2.42;;;20.10;72.70;;;;;;5078804;28;20032;-67
2021/06/03 04:09:57;;;;;;;6.00;2.70;;;20.10;72.50;;;;;;5088742;28;20031;-66
2021/06/03 04:12:23;;;;;;;5.13;2.40;;;20.10;72.60;;;;;;5092881;28;20028;-66
2021/06/03 04:14:49;;;;;;;5.15;2.20;;;20.10;72.50;;;;;;5094039;28;20061;-67
2021/06/03 04:17:14;;;;;;;5.15;2.10;;;20.20;72.50;;;;;;5081568;28;20024;-67
2021/06/03 04:19:40;;;;;;;4.38;2.15;;;20.10;72.30;;;;;;5093461;28;20032;-66
2021/06/03 04:22:06;;;;;;;6.57;2.70;;;20.20;72.20;;;;;;5076087;28;20031;-66
2021/06/03 04:24:31;;;;;;;7.75;3.35;;;20.20;71.80;;;;;;5079169;28;20086;-68
2021/06/03 04:26:57;;;;;;;7.68;2.80;;;20.20;72.00;;;;;;5078388;28;20024;-66
2021/06/03 04:29:23;;;;;;;7.15;3.08;;;20.20;71.80;;;;;;5073777;28;20051;-66
2021/06/03 04:31:49;;;;;;;5.60;2.60;;;20.20;71.80;;;;;;5074838;28;20082;-65
2021/06/03 04:34:14;;;;;;;7.28;3.03;;;20.30;71.80;;;;;;5087757;28;20502;-66
2021/06/03 04:36:41;;;;;;;6.43;2.53;;;20.30;71.50;;;;;;5086639;28;20490;-66
2021/06/03 04:39:06;;;;;;;6.00;2.35;;;20.30;71.70;;;;;;5082501;28;20114;-66
2021/06/03 04:41:32;;;;;;;5.28;2.72;;;20.30;71.50;;;;;;5083988;28;20028;-67
2021/06/03 04:43:57;;;;;;;7.05;2.60;;;20.30;71.50;;;;;;5073187;28;20028;-66
2021/06/03 04:46:23;;;;;;;5.00;2.60;;;20.30;71.50;;;;;;5082645;28;20493;-66
2021/06/03 04:48:48;;;;;;;4.88;2.33;;;20.30;71.50;;;;;;5080082;28;20075;-67
2021/06/03 04:51:14;;;;;;;6.93;2.70;;;20.30;71.60;;;;;;5072047;28;20405;-66
2021/06/03 04:53:39;;;;;;;7.55;2.90;;;20.30;71.50;;;;;;5091324;28;20028;-66
2021/06/03 04:56:05;;;;;;;5.68;2.67;;;20.40;71.60;;;;;;5093602;28;20025;-67
2021/06/03 04:58:31;;;;;;;8.50;2.90;;;20.40;71.60;;;;;;5092085;28;20028;-66
2021/06/03 05:00:56;;;;;;;4.35;2.22;;;20.40;71.50;;;;;;5090921;28;20031;-64
2021/06/03 05:03:22;;;;;;;5.30;2.60;;;20.40;71.30;;;;;;5092974;28;20051;-64
2021/06/03 05:05:48;;;;;;;4.03;2.40;;;20.40;71.20;;;;;;5089601;28;20494;-66
2021/06/03 05:08:14;;;;;;;6.65;2.50;;;20.50;71.20;;;;;;5080868;28;20023;-66
2021/06/03 05:10:40;;;;;;;6.38;2.53;;;20.50;71.00;;;;;;5081320;28;20021;-67
2021/06/03 05:13:06;;;;;;;5.88;2.70;;;20.50;70.60;;;;;;5089448;28;20683;-67
2021/06/03 05:15:33;;;;;;;6.60;2.80;;;20.60;71.00;;;;;;5089642;28;20035;-66
2021/06/03 05:17:59;;;;;;;6.53;2.47;;;20.70;71.00;;;;;;5087795;28;20029;-66
2021/06/03 05:20:27;;;;;;;4.10;2.28;;;20.70;70.30;;;;;;5077565;28;20028;-66
2021/06/03 05:22:54;;;;;;;4.63;2.17;;;20.70;70.00;;;;;;5091654;28;20024;-67
2021/06/03 05:25:22;;;;;;;5.43;2.63;;;20.70;69.80;;;;;;5090998;28;20023;-65
2021/06/03 05:27:49;;;;;;;6.68;2.65;;;20.70;69.90;;;;;;5079783;28;20124;-66
2021/06/03 05:30:17;;;;;;;6.93;3.00;;;20.70;69.90;;;;;;5087701;28;20028;-66
2021/06/03 05:32:43;;;;;;;7.97;2.50;;;20.70;70.40;;;;;;5094435;28;20531;-66
2021/06/03 05:35:12;;;;;;;6.80;2.75;;;20.70;70.40;;;;;;5088341;28;20055;-67
2021/06/03 05:37:38;;;;;;;5.43;2.50;;;20.70;70.20;;;;;;5096417;28;20035;-66
2021/06/03 05:40:06;;;;;;;6.15;2.70;;;20.70;70.10;;;;;;5099214;28;20059;-66
2021/06/03 05:42:32;;;;;;;5.55;2.42;;;20.70;70.20;;;;;;5092137;28;20568;-67
2021/06/03 05:44:58;;;;;;;6.07;2.70;;;20.80;70.10;;;;;;5084796;28;20044;-67
2021/06/03 05:47:23;;;;;;;4.68;2.50;;;20.70;70.20;;;;;;5092280;28;20047;-67
2021/06/03 05:49:49;;;;;;;6.78;3.25;;;20.80;70.20;;;;;;5090911;28;20056;-67
2021/06/03 05:52:15;;;;;;;9.00;2.97;;;20.80;70.00;;;;;;5092793;28;20441;-66
2021/06/03 05:54:40;;;;;;;9.05;3.20;;;20.80;70.30;;;;;;5090309;28;20056;-67
2021/06/03 05:57:06;;;;;;;4.78;2.45;;;20.80;69.90;;;;;;5073692;28;20445;-67
2021/06/03 05:59:32;;;;;;;10.55;3.03;;;20.80;69.40;;;;;;5073159;28;20401;-66
2021/06/03 06:02:03;;;;;;;9.60;3.53;;;20.80;69.30;;;;;;5088713;28;20486;-66
2021/06/03 06:06:54;;;;;;;9.50;3.25;;;20.90;68.90;;;;;;5090742;28;20077;-66
2021/06/03 06:09:21;;;;;;;13.13;4.15;;;21.00;69.40;;;;;;5079420;28;20024;-65
2021/06/03 06:11:46;;;;;;;9.40;3.38;;;21.00;68.90;;;;;;5090822;28;20027;-65
2021/06/03 06:14:12;;;;;;;11.73;3.80;;;21.00;69.30;;;;;;5087088;28;20021;-64
2021/06/03 06:16:38;;;;;;;7.93;3.17;;;21.00;68.90;;;;;;5090799;28;20070;-64
2021/06/03 06:19:08;;;;;;;8.10;3.30;;;21.00;69.30;;;;;;5090701;28;20043;-64
2021/06/03 06:21:35;;;;;;;8.30;2.85;;;20.90;68.90;;;;;;5090595;28;20542;-65
2021/06/03 06:24:01;;;;;;;5.68;3.05;;;20.90;68.90;;;;;;5088508;28;21824;-65
2021/06/03 06:26:26;;;;;;;7.28;3.03;;;20.90;68.70;;;;;;5077322;28;20016;-65
2021/06/03 06:28:54;;;;;;;6.63;2.97;;;20.90;69.00;;;;;;5091836;28;20030;-64
2021/06/03 06:31:20;;;;;;;6.88;3.30;;;20.80;68.80;;;;;;5082035;28;20029;-64
2021/06/03 06:33:47;;;;;;;9.02;2.85;;;20.80;69.10;;;;;;5071446;28;20035;-64
2021/06/03 06:36:13;;;;;;;6.85;3.22;;;20.80;68.90;;;;;;5069818;28;20024;-65
2021/06/03 06:38:39;;;;;;;8.05;2.90;;;20.80;68.80;;;;;;5070247;28;20024;-64
2021/06/03 06:41:06;;;;;;;6.75;2.90;;;20.80;68.80;;;;;;5070300;28;20025;-65
2021/06/03 06:43:33;;;;;;;9.00;3.20;;;20.80;68.80;;;;;;5080844;28;20024;-64
2021/06/03 06:46:01;;;;;;;6.22;2.90;;;20.80;68.40;;;;;;5096982;28;20031;-65
2021/06/03 06:48:27;;;;;;;6.75;2.95;;;20.90;68.60;;;;;;5112046;28;20022;-63
2021/06/03 06:50:53;;;;;;;6.25;2.90;;;20.80;68.60;;;;;;5112090;28;20020;-64
2021/06/03 06:53:20;;;;;;;8.05;3.28;;;20.90;68.80;;;;;;5111946;28;20508;-64
2021/06/03 06:55:46;;;;;;;6.72;2.80;;;20.90;68.70;;;;;;5110481;28;20032;-64
2021/06/03 06:58:12;;;;;;;6.78;2.97;;;21.10;68.40;;;;;;5111919;28;20464;-65
2021/06/03 07:00:40;;;;;;;6.32;3.00;;;21.20;68.00;;;;;;5111962;28;20075;-66
2021/06/03 07:03:08;;;;;;;6.47;2.95;;;21.50;66.70;;;;;;5111998;28;20020;-65
2021/06/03 07:05:34;;;;;;;6.70;2.80;;;21.60;67.20;;;;;;5111706;28;20023;-66
2021/06/03 07:08:00;;;;;;;8.45;2.95;;;21.60;66.50;;;;;;5098437;28;20114;-65
2021/06/03 07:10:26;;;;;;;7.47;3.08;;;21.60;66.30;;;;;;5091456;28;20107;-66
2021/06/03 07:12:52;;;;;;;6.68;3.00;;;21.50;66.60;;;;;;5091524;28;20401;-64
2021/06/03 07:15:18;;;;;;;6.13;2.78;;;21.50;66.80;;;;;;5090031;28;20032;-64
2021/06/03 07:17:44;;;;;;;6.20;2.63;;;21.50;66.30;;;;;;5091449;28;20028;-64
2021/06/03 07:20:15;;;;;;;8.73;3.08;;;21.60;66.10;;;;;;5091363;28;20049;-63
2021/06/03 07:22:44;;;;;;;6.30;3.20;;;21.60;66.20;;;;;;5091756;28;20372;-65
2021/06/03 07:25:12;;;;;;;6.10;3.00;;;21.60;65.90;;;;;;5089846;28;20028;-64
2021/06/03 07:27:39;;;;;;;5.28;2.78;;;21.70;65.90;;;;;;5091212;28;20385;-64
2021/06/03 07:30:07;;;;;;;6.30;2.78;;;21.80;65.50;;;;;;5091171;28;20039;-64
2021/06/03 07:32:33;;;;;;;7.28;2.72;;;21.80;65.50;;;;;;5086602;28;20033;-62
2021/06/03 07:35:00;;;;;;;9.43;3.13;;;22.00;65.50;;;;;;5082516;28;20107;-66
2021/06/03 07:37:28;;;;;;;5.20;2.63;;;22.10;65.00;;;;;;5086918;28;20032;-63
2021/06/03 07:39:55;;;;;;;6.50;2.90;;;22.20;64.70;;;;;;5093400;28;20111;-65
2021/06/03 07:42:21;;;;;;;5.82;2.55;;;22.30;65.00;;;;;;5082647;28;20031;-64
2021/06/03 07:44:47;;;;;;;6.95;2.65;;;22.40;64.30;;;;;;5075105;28;20031;-64
2021/06/03 07:47:14;;;;;;;6.57;2.58;;;22.50;63.90;;;;;;5077592;28;20043;-63
2021/06/03 07:49:40;;;;;;;4.45;2.45;;;22.50;64.00;;;;;;5079376;28;20525;-64
2021/06/03 07:52:07;;;;;;;4.30;2.33;;;22.60;63.60;;;;;;5078722;28;20028;-63
2021/06/03 07:54:33;;;;;;;5.38;2.65;;;22.80;62.70;;;;;;5085040;28;20017;-64
2021/06/03 07:56:59;;;;;;;5.40;2.10;;;23.00;62.30;;;;;;5074736;28;20047;-64
2021/06/03 07:59:25;;;;;;;4.68;2.22;;;23.10;61.30;;;;;;5106277;28;20023;-65
2021/06/03 08:01:51;;;;;;;5.22;2.35;;;23.10;60.90;;;;;;5100514;28;20196;-65
2021/06/03 08:04:18;;;;;;;4.13;1.80;;;23.20;61.20;;;;;;5114111;28;20568;-64
2021/06/03 08:06:44;;;;;;;5.70;2.10;;;23.30;60.10;;;;;;5113588;28;20019;-64
2021/06/03 08:09:10;;;;;;;4.07;2.38;;;23.30;60.00;;;;;;5114843;28;20507;-65
2021/06/03 08:11:35;;;;;;;3.65;2.10;;;23.30;60.20;;;;;;5106488;28;20031;-65
2021/06/03 08:14:01;;;;;;;4.53;2.30;;;23.50;59.40;;;;;;5094148;28;20024;-66
2021/06/03 08:16:27;;;;;;;5.32;2.50;;;23.50;59.30;;;;;;5092922;28;20024;-65
2021/06/03 08:18:53;;;;;;;4.72;2.22;;;23.30;58.80;;;;;;5094243;28;20036;-65
2021/06/03 08:21:19;;;;;;;5.57;2.33;;;23.30;59.50;;;;;;5080843;28;20497;-64
2021/06/03 08:23:45;;;;;;;4.88;2.30;;;23.50;59.20;;;;;;5082504;28;20633;-64
2021/06/03 08:26:11;;;;;;;5.00;2.42;;;23.60;59.20;;;;;;5089218;28;20021;-63
2021/06/03 08:28:36;;;;;;;8.00;2.42;;;23.70;59.60;;;;;;5080975;28;20381;-63
2021/06/03 08:31:02;;;;;;;3.90;2.25;;;23.60;59.40;;;;;;5091907;28;20051;-66
2021/06/03 08:33:29;;;;;;;4.63;2.30;;;23.50;59.70;;;;;;5093811;28;20020;-66
2021/06/03 08:35:55;;;;;;;5.40;2.40;;;23.40;59.40;;;;;;5093687;28;20403;-65
2021/06/03 08:38:21;;;;;;;5.03;2.58;;;23.30;58.50;;;;;;5093751;28;20077;-66
2021/06/03 08:40:50;;;;;;;4.38;2.63;;;23.30;59.40;;;;;;5093097;28;20024;-65
2021/06/03 08:43:16;;;;;;;4.78;2.35;;;23.40;59.80;;;;;;5093232;28;20043;-64
2021/06/03 08:45:44;;;;;;;4.70;2.60;;;23.30;60.20;;;;;;5093651;28;20043;-64
2021/06/03 08:48:10;;;;;;;5.68;2.85;;;23.30;60.50;;;;;;5092491;28;20012;-65
2021/06/03 08:50:40;;;;;;;5.47;2.30;;;23.30;60.90;;;;;;5085013;28;20029;-65
2021/06/03 08:53:06;;;;;;;3.75;2.40;;;23.30;60.30;;;;;;5082284;28;20111;-64
2021/06/03 08:58:21;;;;;;;4.72;2.70;;;23.30;60.70;;;;;;5073545;28;20055;-67
2021/06/03 09:00:47;;;;;;;5.03;2.60;;;23.40;60.40;;;;;;5075795;28;20108;-66
2021/06/03 09:03:14;;;;;;;5.88;2.50;;;23.40;60.80;;;;;;5091419;28;20027;-67
2021/06/03 09:05:40;;;;;;;4.63;2.53;;;23.50;62.00;;;;;;5092005;28;20378;-72
2021/06/03 09:08:17;;;;;;;4.47;2.50;;;23.60;62.00;;;;;;5088850;28;20028;-72
2021/06/03 09:10:43;;;;;;;5.47;2.80;;;23.60;61.70;;;;;;5091015;28;20489;-73
2021/06/03 09:13:14;;;;;;;7.32;3.00;;;23.30;62.50;;;;;;5091065;28;20615;-70
2021/06/03 09:15:45;;;;;;;8.60;3.60;;;23.30;62.20;;;;;;5073475;28;20051;-74
2021/06/03 09:18:11;;;;;;;;;;;23.30;63.00;;;;;;5074536;28;20039;-70
2021/06/03 09:20:42;;;;;;;7.07;3.10;;;23.50;62.10;;;;;;5073095;28;19908;-72
2021/06/03 09:23:27;;;;;;;5.03;2.85;;;23.80;61.00;;;;;;5077075;28;20020;-66
2021/06/03 09:25:53;;;;;;;6.28;3.45;;;23.70;60.90;;;;;;5072733;28;20027;-68
2021/06/03 09:28:29;;;;;;;4.63;2.97;;;23.50;62.10;;;;;;5074736;28;20020;-66
2021/06/03 09:30:58;;;;;;;9.13;3.63;;;23.40;62.30;;;;;;5073798;28;20035;-66
2021/06/03 09:33:49;;;;;;;14.23;3.70;;;23.20;63.70;;;;;;5085579;28;20036;-67
2021/06/03 09:36:31;;;;;;;6.53;3.20;;;23.20;63.50;;;;;;5090689;28;20027;-66
2021/06/03 09:39:05;;;;;;;5.75;3.33;;;23.20;63.10;;;;;;5090812;28;20027;-66
2021/06/03 09:41:31;;;;;;;5.75;3.30;;;23.10;63.40;;;;;;5091300;28;20431;-66
2021/06/03 09:44:23;;;;;;;5.68;3.40;;;23.10;63.60;;;;;;5091089;28;20024;-66
2021/06/03 09:46:52;;;;;;;4.63;2.90;;;23.10;63.70;;;;;;5091342;28;20016;-66
2021/06/03 09:49:21;;;;;;;6.82;3.30;;;23.10;64.10;;;;;;5086449;28;20039;-66
2021/06/03 09:51:49;;;;;;;5.75;2.92;;;23.10;65.00;;;;;;5088474;28;20016;-67
2021/06/03 09:54:19;;;;;;;5.53;3.13;;;23.10;65.40;;;;;;5090877;28;20035;-67
2021/06/03 09:56:46;;;;;;;8.70;3.67;;;23.10;65.50;;;;;;5091112;28;20016;-66
2021/06/03 09:59:21;;;;;;;6.90;3.47;;;23.20;64.60;;;;;;5091126;28;20016;-67
2021/06/03 10:01:55;;;;;;;7.07;3.20;;;23.20;64.60;;;;;;5091198;28;20588;-66
2021/06/03 10:04:30;;;;;;;6.38;3.35;;;23.30;64.90;;;;;;5089926;28;20059;-68
2021/06/03 10:07:10;;;;;;;6.68;3.20;;;23.30;64.50;;;;;;5089930;28;20023;-66
2021/06/03 10:09:40;;;;;;;5.50;3.28;;;23.40;64.40;;;;;;5090437;28;20086;-67
2021/06/03 10:12:12;;;;;;;4.95;2.88;;;23.40;64.00;;;;;;5091519;28;20106;-66
2021/06/03 10:14:38;;;;;;;6.60;3.13;;;23.50;63.80;;;;;;5090634;28;20107;-66
2021/06/03 10:17:16;;;;;;;5.80;3.10;;;23.60;62.60;;;;;;5092028;28;20515;-66
2021/06/03 10:19:43;;;;;;;6.05;2.95;;;23.80;61.50;;;;;;5091384;28;20559;-67
2021/06/03 10:22:16;;;;;;;5.70;3.05;;;24.00;60.30;;;;;;5092049;28;20043;-65
2021/06/03 10:25:02;;;;;;;5.15;2.78;;;24.00;60.30;;;;;;5091786;28;20516;-65
2021/06/03 10:27:30;;;;;;;7.07;2.97;;;24.00;60.90;;;;;;5091905;28;20024;-66
2021/06/03 10:29:57;;;;;;;5.05;3.17;;;23.90;61.60;;;;;;5092081;28;20394;-66
2021/06/03 10:32:25;;;;;;;6.10;3.58;;;23.90;60.90;;;;;;5090587;28;20020;-67
2021/06/03 10:34:53;;;;;;;5.38;3.03;;;23.80;61.30;;;;;;5091570;28;20027;-67
2021/06/03 10:37:19;;;;;;;5.85;3.20;;;23.80;61.70;;;;;;5090550;28;20549;-67
2021/06/03 10:39:46;;;;;;;6.20;3.42;;;23.80;61.60;;;;;;5091865;28;20115;-67
2021/06/03 10:42:14;;;;;;;7.38;3.47;;;23.80;61.70;;;;;;5090484;28;20039;-66
2021/06/03 10:44:41;;;;;;;7.43;3.30;;;24.00;61.00;;;;;;5091405;28;20020;-66
2021/06/03 10:47:12;;;;;;;5.15;3.00;;;24.10;61.20;;;;;;5091798;28;20058;-66
2021/06/03 10:49:38;;;;;;;6.95;3.22;;;24.10;62.70;;;;;;5091655;28;20107;-66
2021/06/03 10:52:09;;;;;;;5.38;3.13;;;24.30;61.90;;;;;;5091799;28;20020;-67
2021/06/03 10:54:50;;;;;;;5.75;3.30;;;24.40;61.70;;;;;;5091505;28;20020;-66
2021/06/03 10:57:18;;;;;;;7.30;3.40;;;24.30;63.10;;;;;;5091594;28;20020;-67
2021/06/03 10:59:44;;;;;;;7.07;3.40;;;24.20;63.30;;;;;;5091736;28;20020;-63
2021/06/03 11:02:11;;;;;;;8.02;3.53;;;24.00;63.70;;;;;;5090361;28;20089;-64
2021/06/03 11:04:39;;;;;;;7.03;3.15;;;24.00;64.30;;;;;;5090050;28;20016;-64
2021/06/03 11:07:07;;;;;;;7.25;3.50;;;24.10;63.40;;;;;;5091573;28;20043;-64
2021/06/03 11:09:37;;;;;;;5.47;3.13;;;24.30;63.70;;;;;;5091237;28;20020;-63
2021/06/03 11:12:15;;;;;;;7.45;3.20;;;24.60;62.70;;;;;;5090351;28;20119;-65
2021/06/03 11:15:00;;;;;;;5.88;3.22;;;24.60;62.00;;;;;;5091211;28;20073;-64
2021/06/03 11:17:48;;;;;;;7.35;3.38;;;25.00;61.60;;;;;;5091409;28;20028;-64
2021/06/03 11:20:14;;;;;;;5.55;3.15;;;25.30;61.30;;;;;;5095532;28;20032;-64
2021/06/03 11:22:40;;;;;;;6.95;3.60;;;25.50;59.80;;;;;;5103496;28;20032;-64
2021/06/03 11:25:06;;;;;;;5.75;3.42;;;25.70;59.00;;;;;;5096023;28;20072;-65
2021/06/03 11:27:36;;;;;;;6.20;3.50;;;25.70;59.30;;;;;;5100045;28;20028;-64
2021/06/03 11:30:10;;;;;;;6.75;3.70;;;25.50;59.90;;;;;;5096609;28;20055;-64
2021/06/03 11:32:39;;;;;;;7.88;3.50;;;25.20;60.90;;;;;;5103200;28;20385;-66
2021/06/03 11:35:08;;;;;;;5.57;3.40;;;25.00;62.30;;;;;;5094921;28;20027;-65
2021/06/03 11:37:38;;;;;;;4.90;3.17;;;25.10;61.40;;;;;;5097069;28;20039;-66
2021/06/03 11:40:09;;;;;;;6.72;3.33;;;24.70;62.80;;;;;;5095798;28;20018;-64
2021/06/03 11:42:40;;;;;;;6.32;3.20;;;24.50;63.70;;;;;;5093632;28;20016;-64
2021/06/03 11:45:11;;;;;;;5.30;3.42;;;24.50;64.20;;;;;;5094210;28;20028;-65
2021/06/03 11:47:36;;;;;;;5.57;3.28;;;24.40;65.00;;;;;;5083304;28;20027;-66
2021/06/03 11:50:23;;;;;;;6.53;3.55;;;24.50;64.50;;;;;;5081151;28;20095;-66
2021/06/03 11:53:01;;;;;;;7.82;3.33;;;24.40;64.40;;;;;;5093100;28;20040;-67
2021/06/03 11:55:30;;;;;;;8.50;3.47;;;24.20;65.00;;;;;;5091891;28;20048;-66
2021/06/03 11:58:31;;;;;;;6.50;3.17;;;24.00;65.20;;;;;;5093529;28;20020;-66
2021/06/03 12:01:05;;;;;;;6.88;3.42;;;23.80;66.00;;;;;;5092539;28;20104;-68
2021/06/03 12:03:33;;;;;;;7.43;3.30;;;23.80;65.70;;;;;;5081278;28;20043;-66
2021/06/03 12:06:03;;;;;;;6.40;3.17;;;23.80;65.50;;;;;;5086263;28;20099;-66
2021/06/03 12:08:52;;;;;;;8.80;3.28;;;23.90;65.90;;;;;;5090273;28;20024;-66
2021/06/03 12:11:44;;;;;;;8.68;3.40;;;23.80;66.10;;;;;;5092828;28;20043;-66
2021/06/03 12:14:16;;;;;;;5.15;3.20;;;23.80;65.30;;;;;;5092796;28;20393;-66
2021/06/03 12:16:45;;;;;;;7.13;3.00;;;23.80;65.70;;;;;;5093158;28;20020;-67
2021/06/03 12:19:13;;;;;;;7.93;3.45;;;23.70;65.40;;;;;;5089204;28;20517;-65
2021/06/03 12:21:41;;;;;;;6.47;3.30;;;23.70;65.50;;;;;;5092831;28;20503;-65
2021/06/03 12:24:08;;;;;;;5.68;2.88;;;23.70;65.50;;;;;;5088427;28;20024;-66
2021/06/03 12:26:40;;;;;;;6.28;3.40;;;23.60;65.80;;;;;;5091657;28;20020;-65
2021/06/03 12:29:06;;;;;;;6.07;3.08;;;23.60;65.80;;;;;;5091951;28;20630;-66
2021/06/03 12:31:32;;;;;;;8.05;3.45;;;23.60;65.30;;;;;;5092703;28;20817;-66
2021/06/03 12:33:59;;;;;;;5.93;3.03;;;23.50;65.60;;;;;;5092391;28;20499;-67
2021/06/03 12:36:26;;;;;;;5.45;3.15;;;23.50;65.70;;;;;;5093681;28;20483;-66
2021/06/03 12:39:02;;;;;;;7.60;3.42;;;23.40;66.60;;;;;;5089524;28;20030;-66
2021/06/03 12:41:35;;;;;;;5.78;2.95;;;23.40;67.00;;;;;;5091621;28;20028;-66
2021/06/03 12:44:04;;;;;;;5.97;3.00;;;23.30;66.70;;;;;;5089063;28;20499;-66
2021/06/03 12:46:30;;;;;;;5.95;3.13;;;23.20;66.90;;;;;;5092262;28;20031;-66
2021/06/03 12:49:09;;;;;;;5.18;2.90;;;23.20;67.30;;;;;;5093244;28;20024;-66
2021/06/03 12:51:36;;;;;;;11.10;2.97;;;23.10;67.30;;;;;;5093817;28;20020;-66
2021/06/03 12:54:02;;;;;;;4.82;2.78;;;23.10;67.30;;;;;;5092867;28;20031;-68
2021/06/03 12:56:29;;;;;;;6.13;3.13;;;23.10;67.10;;;;;;5092893;28;20028;-67
2021/06/03 12:58:55;;;;;;;6.85;3.20;;;23.10;67.30;;;;;;5093058;28;20097;-67